Time,TemperatureF,DewpointF,PressureIn,WindDirection,WindDirectionDegrees,WindSpeedMPH,WindSpeedGustMPH,Humidity,HourlyPrecipIn,Conditions,Clouds,dailyrainin,SolarRadiationWatts/m^2,SoftwareType,DateUTC
2013-01-04 00:03:00,13.3,4.1,29.92,NNW,343,1.0,2.0,66,0.00,,,0.00,0,Wunderground v.1.15,2013-01-04 05:03:00,
2013-01-04 00:33:00,11.9,3.4,29.91,NNW,343,0.0,4.0,68,0.00,,,0.00,0,Wunderground v.1.15,2013-01-04 05:33:00,
2013-01-04 01:03:00,10.7,4.6,29.90,NNW,343,1.0,1.0,76,0.00,,,0.00,0,Wunderground v.1.15,2013-01-04 06:03:00,
2013-01-04 01:33:00,9.9,5.5,29.89,NNW,343,0.0,3.0,82,0.00,,,0.00,0,Wunderground v.1.15,2013-01-04 06:33:00,
2013-01-04 02:04:00,9.7,3.9,29.89,NNW,343,4.0,4.0,77,0.00,,,0.00,0,Wunderground v.1.15,2013-01-04 07:04:00,
2013-01-04 02:33:00,8.1,3.2,29.88,NNW,343,0.0,4.0,80,0.00,,,0.00,0,Wunderground v.1.15,2013-01-04 07:33:00,
2013-01-04 03:03:00,8.7,4.3,29.87,NNW,343,0.0,4.0,82,0.00,,,0.00,0,Wunderground v.1.15,2013-01-04 08:03:00,
2013-01-04 03:33:00,10.9,4.8,29.87,NNW,342,3.0,3.0,76,0.00,,,0.00,0,Wunderground v.1.15,2013-01-04 08:33:00,
2013-01-04 04:03:00,10.1,4.0,29.86,NNW,343,1.0,4.0,76,0.00,,,0.00,0,Wunderground v.1.15,2013-01-04 09:03:00,
2013-01-04 04:33:00,10.8,3.8,29.86,NNW,343,2.0,4.0,73,0.00,,,0.00,0,Wunderground v.1.15,2013-01-04 09:33:00,
2013-01-04 05:04:00,9.1,4.7,29.85,NNW,330,3.0,3.0,82,0.00,,,0.00,0,Wunderground v.1.15,2013-01-04 10:04:00,
2013-01-04 05:33:00,6.2,2.4,29.85,NNW,329,4.0,6.0,84,0.00,,,0.00,0,Wunderground v.1.15,2013-01-04 10:33:00,
2013-01-04 06:03:00,6.7,2.9,29.86,NNW,329,2.0,5.0,84,0.00,,,0.00,0,Wunderground v.1.15,2013-01-04 11:03:00,
2013-01-04 06:33:00,6.6,3.6,29.86,NNW,329,3.0,3.0,87,0.00,,,0.00,0,Wunderground v.1.15,2013-01-04 11:33:00,
2013-01-04 07:03:00,10.2,6.8,29.87,North,358,3.0,3.0,86,0.00,,,0.00,0,Wunderground v.1.15,2013-01-04 12:03:00,
2013-01-04 07:33:00,10.3,7.5,29.86,NNW,333,0.0,5.0,88,0.00,,,0.00,28,Wunderground v.1.15,2013-01-04 12:33:00,
2013-01-04 08:03:00,13.8,10.6,29.85,NNW,333,0.0,3.0,87,0.00,,,0.00,97,Wunderground v.1.15,2013-01-04 13:03:00,
2013-01-04 08:33:00,13.5,9.0,29.83,NNW,330,0.0,5.0,82,0.00,,,0.00,107,Wunderground v.1.15,2013-01-04 13:33:00,
2013-01-04 09:04:00,16.2,11.9,29.83,WNW,289,1.0,6.0,83,0.00,,,0.00,72,Wunderground v.1.15,2013-01-04 14:04:00,
2013-01-04 09:33:00,18.4,13.8,29.84,NW,315,4.0,4.0,82,0.00,,,0.00,81,Wunderground v.1.15,2013-01-04 14:33:00,
2013-01-04 10:03:00,19.6,15.3,29.83,NW,314,2.0,5.0,83,0.00,,,0.00,65,Wunderground v.1.15,2013-01-04 15:03:00,
2013-01-04 10:33:00,20.9,16.3,29.82,NW,314,0.0,5.0,82,0.00,,,0.00,109,Wunderground v.1.15,2013-01-04 15:33:00,
2013-01-04 11:04:00,24.6,19.6,29.78,NW,314,0.0,2.0,81,0.00,,,0.00,153,Wunderground v.1.15,2013-01-04 16:04:00,
2013-01-04 11:33:00,27.5,22.1,29.76,WNW,282,4.0,7.0,80,0.00,,,0.00,139,Wunderground v.1.15,2013-01-04 16:33:00,
2013-01-04 12:03:00,29.3,23.3,29.73,WNW,293,5.0,10.0,78,0.00,,,0.00,165,Wunderground v.1.15,2013-01-04 17:03:00,
2013-01-04 12:33:00,31.0,24.6,29.72,WNW,301,5.0,5.0,77,0.00,,,0.00,137,Wunderground v.1.15,2013-01-04 17:33:00,
2013-01-04 13:04:00,32.9,26.2,29.69,WNW,295,5.0,7.0,76,0.00,,,0.00,128,Wunderground v.1.15,2013-01-04 18:04:00,
2013-01-04 13:33:00,33.6,25.9,29.70,WNW,291,7.0,16.0,73,0.00,,,0.00,97,Wunderground v.1.15,2013-01-04 18:33:00,
2013-01-04 14:03:00,33.3,25.6,29.71,WNW,299,8.0,8.0,73,0.00,,,0.00,107,Wunderground v.1.15,2013-01-04 19:03:00,
2013-01-04 14:33:00,32.6,24.9,29.72,WNW,286,7.0,16.0,73,0.00,,,0.00,60,Wunderground v.1.15,2013-01-04 19:33:00,